Time;durP1;ratioP1;P1;durP2;ratioP2;P2;SDS_P1;SDS_P2;PMS_P1;PMS_P2;Temp;Humidity;BMP_temperature;BMP_pressure;BME280_temperature;BME280_humidity;BME280_pressure;Samples;Min_cycle;Max_cycle;Signal;HPM_P1;HPM_P2
2022/05/13 00:00:27;;;;;;;9.18;6.65;;;;;;;;;;4937915;28;20052;-70
2022/05/13 00:02:52;;;;;;;11.52;6.82;;;;;;;;;;4922983;28;20460;-67
2022/05/13 00:05:17;;;;;;;8.63;6.47;;;;;;;;;;4934553;28;20027;-74
2022/05/13 00:07:43;;;;;;;8.88;6.03;;;;;;;;;;4939757;29;20027;-69
2022/05/13 00:10:08;;;;;;;8.57;6.93;;;;;;;;;;4938630;29;20036;-68
2022/05/13 00:12:42;;;;;;;11.40;7.63;;;;;;;;;;4932898;29;20035;-69
2022/05/13 00:15:10;;;;;;;10.27;7.18;;;;;;;;;;4934447;29;20086;-70
2022/05/13 00:17:35;;;;;;;11.45;7.38;;;;;;;;;;4938636;29;20844;-71
2022/05/13 00:20:02;;;;;;;9.38;7.00;;;;;;;;;;4937106;28;20066;-69
2022/05/13 00:22:28;;;;;;;10.02;7.70;;;;;;;;;;4936445;29;20033;-69
2022/05/13 00:24:54;;;;;;;6.50;5.90;;;;;;;;;;4933723;28;20019;-69
2022/05/13 00:27:20;;;;;;;7.35;6.28;;;;;;;;;;4935150;28;20034;-69
2022/05/13 00:29:45;;;;;;;6.93;6.22;;;;;;;;;;4933292;28;20026;-70
2022/05/13 00:32:11;;;;;;;7.85;6.15;;;;;;;;;;4938785;28;20027;-67
2022/05/13 00:34:36;;;;;;;7.40;6.40;;;;;;;;;;4938164;28;20053;-66
2022/05/13 00:37:02;;;;;;;8.88;6.05;;;;;;;;;;4938978;29;20126;-68
2022/05/13 00:39:27;;;;;;;8.32;7.00;;;;;;;;;;4937092;29;20031;-68
2022/05/13 00:41:55;;;;;;;7.32;6.63;;;;;;;;;;4928817;28;20050;-69
2022/05/13 00:44:21;;;;;;;9.13;7.05;;;;;;;;;;4931617;29;20093;-74
2022/05/13 00:46:47;;;;;;;8.32;6.22;;;;;;;;;;4938734;29;20824;-68
2022/05/13 00:49:14;;;;;;;9.00;6.15;;;;;;;;;;4937987;29;20061;-67
2022/05/13 00:51:41;;;;;;;7.70;6.22;;;;;;;;;;4936389;28;20026;-68
2022/05/13 00:54:08;;;;;;;7.35;5.95;;;;;;;;;;4929785;29;20062;-70
2022/05/13 00:56:34;;;;;;;7.13;6.43;;;;;;;;;;4935354;28;20030;-68
2022/05/13 00:59:01;;;;;;;6.90;6.20;;;;;;;;;;4930219;28;20027;-70
2022/05/13 01:01:27;;;;;;;9.48;6.40;;;;;;;;;;4934839;29;20108;-73
2022/05/13 01:03:53;;;;;;;8.45;6.82;;;;;;;;;;4938675;29;20039;-71
2022/05/13 01:06:22;;;;;;;8.98;6.00;;;;;;;;;;4937444;28;20101;-68
2022/05/13 01:08:48;;;;;;;8.10;6.45;;;;;;;;;;4937965;28;20031;-68
2022/05/13 01:11:15;;;;;;;7.97;7.15;;;;;;;;;;4936994;28;20449;-70
2022/05/13 01:13:44;;;;;;;9.88;7.18;;;;;;;;;;4936072;28;20067;-69
2022/05/13 01:16:09;;;;;;;9.60;7.60;;;;;;;;;;4936499;28;20038;-68
2022/05/13 01:18:36;;;;;;;9.18;7.00;;;;;;;;;;4936637;28;20027;-70
2022/05/13 01:21:03;;;;;;;8.30;7.40;;;;;;;;;;4938717;29;20038;-70
2022/05/13 01:23:42;;;;;;;8.15;6.60;;;;;;;;;;4930756;29;20035;-75
2022/05/13 01:26:09;;;;;;;7.60;6.80;;;;;;;;;;4929752;28;20422;-71
2022/05/13 01:28:41;;;;;;;7.10;6.38;;;;;;;;;;4935123;28;20035;-72
2022/05/13 01:31:08;;;;;;;8.45;6.57;;;;;;;;;;4930634;29;20035;-69
2022/05/13 01:33:34;;;;;;;8.30;7.20;;;;;;;;;;4938366;29;20118;-68
2022/05/13 01:36:00;;;;;;;9.88;6.90;;;;;;;;;;4937040;29;20109;-69
2022/05/13 01:38:30;;;;;;;8.93;7.00;;;;;;;;;;4936735;29;20328;-70
2022/05/13 01:40:55;;;;;;;8.88;6.63;;;;;;;;;;4937288;29;20037;-71
2022/05/13 01:43:21;;;;;;;8.43;7.57;;;;;;;;;;4937243;28;20362;-68
2022/05/13 01:45:46;;;;;;;9.07;7.45;;;;;;;;;;4937521;28;20030;-70
2022/05/13 01:48:12;;;;;;;8.45;6.90;;;;;;;;;;4935680;28;20027;-74
2022/05/13 01:50:38;;;;;;;7.75;6.93;;;;;;;;;;4936921;29;20019;-72
2022/05/13 01:53:04;;;;;;;7.68;6.57;;;;;;;;;;4938712;28;20097;-70
2022/05/13 01:55:30;;;;;;;8.85;7.57;;;;;;;;;;4938965;29;20114;-69
2022/05/13 01:57:55;;;;;;;8.02;7.00;;;;;;;;;;4939442;29;20110;-71
2022/05/13 02:00:22;;;;;;;8.18;6.72;;;;;;;;;;4937892;28;20051;-68
2022/05/13 02:05:32;;;;;;;9.73;6.93;;;;;;;;;;4936749;28;20060;-68
2022/05/13 02:07:58;;;;;;;7.70;6.72;;;;;;;;;;4937486;28;20126;-69
2022/05/13 02:10:23;;;;;;;10.75;7.40;;;;;;;;;;4935936;29;20035;-68
2022/05/13 02:12:49;;;;;;;10.13;7.40;;;;;;;;;;4937037;29;20027;-69
2022/05/13 02:15:14;;;;;;;8.90;7.20;;;;;;;;;;4938202;28;20028;-69
2022/05/13 02:17:39;;;;;;;8.25;6.78;;;;;;;;;;4933514;29;20386;-69
2022/05/13 02:20:06;;;;;;;7.10;6.50;;;;;;;;;;4941808;28;20112;-72
2022/05/13 02:22:31;;;;;;;8.70;7.43;;;;;;;;;;4933436;28;20023;-73
2022/05/13 02:24:57;;;;;;;9.00;7.72;;;;;;;;;;4936912;28;20031;-70
2022/05/13 02:27:22;;;;;;;8.65;7.30;;;;;;;;;;4935939;29;20065;-68
2022/05/13 02:29:47;;;;;;;9.13;7.32;;;;;;;;;;4930141;29;20358;-68
2022/05/13 02:32:13;;;;;;;7.90;7.07;;;;;;;;;;4933237;28;20027;-71
2022/05/13 02:34:38;;;;;;;9.63;7.70;;;;;;;;;;4937403;28;20062;-71
2022/05/13 02:37:04;;;;;;;8.63;7.72;;;;;;;;;;4936765;28;20116;-68
2022/05/13 02:39:29;;;;;;;8.45;7.65;;;;;;;;;;4929327;28;20059;-68
2022/05/13 02:41:54;;;;;;;8.73;7.72;;;;;;;;;;4935806;28;20153;-68
2022/05/13 02:44:21;;;;;;;9.20;8.25;;;;;;;;;;4936883;28;20046;-74
2022/05/13 02:46:47;;;;;;;9.07;8.02;;;;;;;;;;4934722;29;20062;-68
2022/05/13 02:49:13;;;;;;;10.43;8.45;;;;;;;;;;4936598;29;20106;-68
2022/05/13 02:51:40;;;;;;;9.07;7.72;;;;;;;;;;4937231;28;20126;-67
2022/05/13 02:54:05;;;;;;;9.98;8.82;;;;;;;;;;4929797;29;20031;-74
2022/05/13 02:56:30;;;;;;;10.85;7.88;;;;;;;;;;4928442;29;20350;-69
2022/05/13 02:58:56;;;;;;;12.27;9.77;;;;;;;;;;4930152;29;20039;-70
2022/05/13 03:01:21;;;;;;;9.65;8.65;;;;;;;;;;4933594;29;20359;-72
2022/05/13 03:03:47;;;;;;;10.10;8.43;;;;;;;;;;4929826;28;20121;-71
2022/05/13 03:06:16;;;;;;;10.88;8.38;;;;;;;;;;4929939;28;20142;-70
2022/05/13 03:08:41;;;;;;;10.15;8.65;;;;;;;;;;4935640;28;20035;-67
2022/05/13 03:11:07;;;;;;;10.43;8.15;;;;;;;;;;4936514;29;21013;-70
2022/05/13 03:13:32;;;;;;;9.38;7.65;;;;;;;;;;4934977;28;20034;-67
2022/05/13 03:16:05;;;;;;;9.15;8.07;;;;;;;;;;4934971;29;20031;-67
2022/05/13 03:18:30;;;;;;;9.52;8.50;;;;;;;;;;4936936;29;20130;-71
2022/05/13 03:20:56;;;;;;;11.65;8.93;;;;;;;;;;4934192;28;20110;-67
2022/05/13 03:23:22;;;;;;;9.70;8.52;;;;;;;;;;4937001;29;20023;-69
2022/05/13 03:25:47;;;;;;;9.68;7.70;;;;;;;;;;4928712;29;20061;-69
2022/05/13 03:28:12;;;;;;;10.55;9.18;;;;;;;;;;4935566;28;20062;-67
2022/05/13 03:30:38;;;;;;;11.75;9.05;;;;;;;;;;4937257;29;20295;-71
2022/05/13 03:33:04;;;;;;;13.68;9.73;;;;;;;;;;4936000;29;20498;-68
2022/05/13 03:35:29;;;;;;;8.90;7.68;;;;;;;;;;4936412;29;20045;-69
2022/05/13 03:37:54;;;;;;;12.07;9.25;;;;;;;;;;4936475;29;20027;-68
2022/05/13 03:40:20;;;;;;;11.52;8.25;;;;;;;;;;4937143;28;20114;-65
2022/05/13 03:42:45;;;;;;;10.63;8.35;;;;;;;;;;4935523;29;20342;-68
2022/05/13 03:45:12;;;;;;;10.75;8.05;;;;;;;;;;4937110;28;20434;-66
2022/05/13 03:47:37;;;;;;;10.68;7.82;;;;;;;;;;4928678;29;20039;-70
2022/05/13 03:50:03;;;;;;;9.20;8.20;;;;;;;;;;4936885;29;20027;-69
2022/05/13 03:52:28;;;;;;;9.80;8.77;;;;;;;;;;4938344;28;20027;-68
2022/05/13 03:54:53;;;;;;;10.60;8.73;;;;;;;;;;4936621;29;20055;-76
2022/05/13 03:57:19;;;;;;;11.00;8.32;;;;;;;;;;4931739;28;20027;-70
2022/05/13 03:59:45;;;;;;;8.75;7.57;;;;;;;;;;4928258;28;20074;-68
2022/05/13 04:02:10;;;;;;;9.45;8.02;;;;;;;;;;4927794;29;20039;-67
2022/05/13 04:08:56;;;;;;;9.85;7.80;;;;;;;;;;4928273;28;20032;-68
2022/05/13 04:10:05;;;;;;;11.43;8.48;;;;;;;;;;4924661;29;20121;-67
2022/05/13 04:17:58;;;;;;;9.57;8.20;;;;;;;;;;4927874;29;20046;-68
2022/05/13 04:20:23;;;;;;;11.32;9.13;;;;;;;;;;4930733;28;20423;-69
2022/05/13 04:22:49;;;;;;;10.43;8.43;;;;;;;;;;4938774;29;20038;-74
2022/05/13 04:25:14;;;;;;;11.13;9.40;;;;;;;;;;4928235;28;21208;-73
2022/05/13 04:27:41;;;;;;;11.13;8.35;;;;;;;;;;4927125;28;20036;-72
2022/05/13 04:30:06;;;;;;;10.25;9.25;;;;;;;;;;4922095;28;20146;-67
2022/05/13 04:32:32;;;;;;;9.50;8.43;;;;;;;;;;4928200;29;20252;-68
2022/05/13 04:34:57;;;;;;;9.43;7.95;;;;;;;;;;4925488;28;20106;-66
2022/05/13 04:37:22;;;;;;;11.93;9.07;;;;;;;;;;4926255;28;20193;-70
2022/05/13 04:39:52;;;;;;;12.05;10.43;;;;;;;;;;4926812;29;20027;-68
2022/05/13 04:45:02;;;;;;;19.80;9.80;;;;;;;;;;4927777;28;20092;-69
2022/05/13 04:50:12;;;;;;;13.43;9.00;;;;;;;;;;4926637;28;20085;-70
2022/05/13 04:52:37;;;;;;;11.68;8.63;;;;;;;;;;4927142;28;20039;-74
2022/05/13 04:55:03;;;;;;;15.38;9.13;;;;;;;;;;4925026;28;20042;-73
2022/05/13 04:57:28;;;;;;;9.50;8.50;;;;;;;;;;4926591;28;20431;-71
2022/05/13 04:59:53;;;;;;;10.80;9.18;;;;;;;;;;4925672;28;20601;-68
2022/05/13 05:02:19;;;;;;;11.75;9.02;;;;;;;;;;4926328;28;20039;-69
2022/05/13 05:04:44;;;;;;;10.40;8.68;;;;;;;;;;4926077;29;20447;-69
2022/05/13 05:07:10;;;;;;;16.42;8.90;;;;;;;;;;4923622;28;20111;-69
2022/05/13 05:09:36;;;;;;;22.15;15.23;;;;;;;;;;4926276;28;20118;-70
2022/05/13 05:12:01;;;;;;;15.15;12.52;;;;;;;;;;4926583;28;20022;-70
2022/05/13 05:14:27;;;;;;;14.00;11.32;;;;;;;;;;4926857;28;20035;-69
2022/05/13 05:16:53;;;;;;;8.77;7.90;;;;;;;;;;4927754;28;20019;-70
2022/05/13 05:19:18;;;;;;;9.38;7.85;;;;;;;;;;4926814;29;20031;-74
2022/05/13 05:21:44;;;;;;;8.73;7.93;;;;;;;;;;4926500;28;20177;-70
2022/05/13 05:24:10;;;;;;;9.02;8.15;;;;;;;;;;4925944;28;20039;-71
2022/05/13 05:26:36;;;;;;;9.18;8.18;;;;;;;;;;4926565;28;20039;-71
2022/05/13 05:29:01;;;;;;;9.77;8.15;;;;;;;;;;4926486;28;20038;-70
2022/05/13 05:31:26;;;;;;;9.73;8.63;;;;;;;;;;4926095;28;20065;-72
2022/05/13 05:33:52;;;;;;;8.60;7.80;;;;;;;;;;4927444;28;20059;-69
2022/05/13 05:36:17;;;;;;;8.73;7.57;;;;;;;;;;4932420;28;20381;-68
2022/05/13 05:38:42;;;;;;;8.85;7.57;;;;;;;;;;4936258;29;20168;-68
2022/05/13 05:41:08;;;;;;;9.10;8.23;;;;;;;;;;4936457;28;20390;-69
2022/05/13 05:43:35;;;;;;;9.15;7.40;;;;;;;;;;4929276;29;20023;-69
2022/05/13 05:46:01;;;;;;;9.63;6.55;;;;;;;;;;4927190;28;20035;-73
2022/05/13 05:48:26;;;;;;;7.40;6.70;;;;;;;;;;4937831;28;20028;-72
2022/05/13 05:50:53;;;;;;;9.57;6.55;;;;;;;;;;4940153;28;20473;-70
2022/05/13 05:58:46;;;;;;;6.50;4.90;;;;;;;;;;4937267;29;20050;-73
2022/05/13 06:01:12;;;;;;;6.55;4.65;;;;;;;;;;4936273;29;20434;-71
2022/05/13 06:03:37;;;;;;;7.32;5.20;;;;;;;;;;4936212;29;20427;-71
2022/05/13 06:06:04;;;;;;;5.18;4.40;;;;;;;;;;4936478;28;20032;-72
2022/05/13 06:08:29;;;;;;;5.22;4.60;;;;;;;;;;4936072;28;20035;-70
2022/05/13 06:10:54;;;;;;;6.85;4.40;;;;;;;;;;4936166;28;20034;-71
2022/05/13 06:13:20;;;;;;;5.47;4.97;;;;;;;;;;4935129;28;20423;-72
2022/05/13 06:15:45;;;;;;;6.70;5.13;;;;;;;;;;4937679;29;20043;-71
2022/05/13 06:18:10;;;;;;;8.50;5.43;;;;;;;;;;4937141;29;20826;-74
2022/05/13 06:20:36;;;;;;;5.68;4.72;;;;;;;;;;4935897;28;20050;-71
2022/05/13 06:23:01;;;;;;;5.15;4.65;;;;;;;;;;4935964;29;20353;-70
2022/05/13 06:25:26;;;;;;;5.63;5.03;;;;;;;;;;4936066;29;20549;-71
2022/05/13 06:27:53;;;;;;;5.75;4.55;;;;;;;;;;4935979;29;20023;-73
2022/05/13 06:30:23;;;;;;;5.60;4.95;;;;;;;;;;4936940;29;20084;-70
2022/05/13 06:32:49;;;;;;;8.55;4.32;;;;;;;;;;4935424;28;20035;-71
2022/05/13 06:35:14;;;;;;;4.20;3.80;;;;;;;;;;4936477;29;20042;-71
2022/05/13 06:37:40;;;;;;;4.88;4.03;;;;;;;;;;4937412;28;20058;-70
2022/05/13 06:40:06;;;;;;;4.40;4.00;;;;;;;;;;4938539;28;20487;-71
2022/05/13 06:42:31;;;;;;;4.97;4.15;;;;;;;;;;4936295;29;20036;-70
2022/05/13 06:44:56;;;;;;;6.43;3.78;;;;;;;;;;4934318;28;20050;-70
2022/05/13 06:47:22;;;;;;;3.97;3.22;;;;;;;;;;4935666;28;20366;-70
2022/05/13 06:49:47;;;;;;;3.80;3.47;;;;;;;;;;4936729;29;20035;-74
2022/05/13 06:52:13;;;;;;;5.10;3.55;;;;;;;;;;4936228;29;20028;-72
2022/05/13 06:54:41;;;;;;;6.03;3.65;;;;;;;;;;4935897;28;20042;-73
2022/05/13 06:57:07;;;;;;;5.20;4.10;;;;;;;;;;4934241;29;20120;-70
2022/05/13 06:59:33;;;;;;;7.47;3.55;;;;;;;;;;4934371;28;20053;-72
2022/05/13 07:01:58;;;;;;;4.10;3.53;;;;;;;;;;4934936;28;20431;-71
2022/05/13 07:04:23;;;;;;;6.22;4.13;;;;;;;;;;4936274;28;20031;-72
2022/05/13 07:06:49;;;;;;;7.05;4.13;;;;;;;;;;4935555;28;20031;-71
2022/05/13 07:09:14;;;;;;;3.60;3.25;;;;;;;;;;4935251;29;20023;-71
2022/05/13 07:11:39;;;;;;;4.05;3.50;;;;;;;;;;4935525;28;20374;-70
2022/05/13 07:14:05;;;;;;;4.40;4.00;;;;;;;;;;4935736;28;20132;-70
2022/05/13 07:16:31;;;;;;;4.80;4.13;;;;;;;;;;4934937;28;20378;-71
2022/05/13 07:18:56;;;;;;;4.70;4.20;;;;;;;;;;4935535;29;20107;-70
2022/05/13 07:21:21;;;;;;;5.20;3.95;;;;;;;;;;4936856;29;20019;-71
2022/05/13 07:23:47;;;;;;;5.93;3.80;;;;;;;;;;4935097;28;21143;-73
2022/05/13 07:26:12;;;;;;;5.47;4.10;;;;;;;;;;4928840;28;20039;-72
2022/05/13 07:28:41;;;;;;;6.38;4.20;;;;;;;;;;4939498;28;20062;-73
2022/05/13 07:31:07;;;;;;;4.93;3.95;;;;;;;;;;4938474;28;20031;-71
2022/05/13 07:33:32;;;;;;;5.40;4.88;;;;;;;;;;4938650;28;20457;-71
2022/05/13 07:35:58;;;;;;;5.55;4.00;;;;;;;;;;4936059;28;20035;-74
2022/05/13 07:38:23;;;;;;;5.18;4.43;;;;;;;;;;4939722;28;20047;-71
2022/05/13 07:43:34;;;;;;;4.72;4.20;;;;;;;;;;4937887;28;20058;-72
2022/05/13 07:45:59;;;;;;;4.85;4.22;;;;;;;;;;4939856;29;20110;-70
2022/05/13 07:48:24;;;;;;;4.28;3.88;;;;;;;;;;4938822;28;20126;-71
2022/05/13 07:50:51;;;;;;;5.28;4.00;;;;;;;;;;4939077;28;20042;-71
2022/05/13 07:53:17;;;;;;;4.47;4.07;;;;;;;;;;4939768;29;20042;-73
2022/05/13 07:55:43;;;;;;;5.25;4.15;;;;;;;;;;4938211;29;20024;-69
2022/05/13 07:58:08;;;;;;;4.63;4.05;;;;;;;;;;4938576;29;20039;-70
2022/05/13 08:00:33;;;;;;;8.60;4.70;;;;;;;;;;4936676;28;20047;-70
2022/05/13 08:03:01;;;;;;;5.93;4.63;;;;;;;;;;4940021;28;20103;-71
2022/05/13 08:05:28;;;;;;;5.32;4.00;;;;;;;;;;4939114;28;20031;-71
2022/05/13 08:07:59;;;;;;;4.70;4.30;;;;;;;;;;4938044;29;20040;-70
2022/05/13 08:10:24;;;;;;;7.45;4.50;;;;;;;;;;4938981;29;20035;-74
2022/05/13 08:12:49;;;;;;;4.50;4.13;;;;;;;;;;4938508;29;20019;-71
2022/05/13 08:15:15;;;;;;;7.70;4.47;;;;;;;;;;4938028;28;20054;-71
2022/05/13 08:17:40;;;;;;;7.55;4.60;;;;;;;;;;4939719;28;20454;-69
2022/05/13 08:20:06;;;;;;;7.03;5.10;;;;;;;;;;4939915;29;20431;-70
2022/05/13 08:22:31;;;;;;;5.05;4.20;;;;;;;;;;4939067;29;20031;-73
2022/05/13 08:24:56;;;;;;;4.35;3.97;;;;;;;;;;4939329;29;20035;-72
2022/05/13 08:27:22;;;;;;;7.97;4.50;;;;;;;;;;4940208;28;20031;-75
2022/05/13 08:29:47;;;;;;;5.03;4.15;;;;;;;;;;4938388;29;20038;-72
2022/05/13 08:32:12;;;;;;;5.13;3.83;;;;;;;;;;4938421;29;20063;-71
2022/05/13 08:34:38;;;;;;;7.35;3.30;;;;;;;;;;4937398;28;20240;-71
2022/05/13 08:37:03;;;;;;;4.05;3.15;;;;;;;;;;4936932;28;20405;-71
2022/05/13 08:39:28;;;;;;;4.97;3.10;;;;;;;;;;4937593;28;20428;-70
2022/05/13 08:42:07;;;;;;;2.97;2.67;;;;;;;;;;4940445;29;20031;-71
2022/05/13 08:44:33;;;;;;;4.57;3.03;;;;;;;;;;4936680;29;20061;-75
2022/05/13 08:47:13;;;;;;;3.28;2.97;;;;;;;;;;4939594;28;20035;-70
2022/05/13 08:49:51;;;;;;;4.90;2.75;;;;;;;;;;4926189;28;20451;-71
2022/05/13 08:55:01;;;;;;;7.38;3.63;;;;;;;;;;4940255;29;20086;-72
2022/05/13 08:57:28;;;;;;;4.07;3.67;;;;;;;;;;4937063;28;20055;-74
2022/05/13 09:00:03;;;;;;;5.78;4.00;;;;;;;;;;4938383;28;20100;-71
2022/05/13 09:02:32;;;;;;;5.45;3.45;;;;;;;;;;4936061;29;20038;-73
2022/05/13 09:04:59;;;;;;;;;;;;;;;;;;4938859;29;20027;-72
2022/05/13 09:07:25;;;;;;;6.68;4.28;;;;;;;;;;4938057;28;19929;-70
2022/05/13 09:09:52;;;;;;;4.80;3.45;;;;;;;;;;4939057;28;20024;-70
2022/05/13 09:12:41;;;;;;;4.28;3.65;;;;;;;;;;4938897;29;20328;-70
2022/05/13 09:15:06;;;;;;;;;;;;;;;;;;4939402;29;20032;-70
2022/05/13 09:17:34;;;;;;;4.10;3.70;;;;;;;;;;4930719;28;19921;-72
2022/05/13 09:20:06;;;;;;;4.17;3.67;;;;;;;;;;4935921;28;20054;-76
2022/05/13 09:22:42;;;;;;;5.55;3.50;;;;;;;;;;4926755;28;20410;-71
2022/05/13 09:25:11;;;;;;;7.47;3.72;;;;;;;;;;4924633;28;20031;-72
2022/05/13 09:27:47;;;;;;;3.88;3.33;;;;;;;;;;4933241;29;20122;-71
2022/05/13 09:30:17;;;;;;;5.70;3.53;;;;;;;;;;4938655;28;20066;-71
2022/05/13 09:32:43;;;;;;;4.75;3.58;;;;;;;;;;4937266;29;20065;-73
2022/05/13 09:35:08;;;;;;;3.88;3.38;;;;;;;;;;4928389;29;20074;-71
2022/05/13 09:37:39;;;;;;;4.10;3.70;;;;;;;;;;4939297;28;20027;-73
2022/05/13 09:40:10;;;;;;;7.60;4.10;;;;;;;;;;4938114;28;20031;-71
2022/05/13 09:42:40;;;;;;;5.30;3.63;;;;;;;;;;4937552;28;20032;-72
2022/05/13 09:45:25;;;;;;;3.70;3.38;;;;;;;;;;4928403;29;20058;-73
2022/05/13 09:48:05;;;;;;;4.22;3.58;;;;;;;;;;4937068;28;20027;-71
2022/05/13 09:50:32;;;;;;;3.45;3.15;;;;;;;;;;4937306;28;20050;-72
2022/05/13 09:53:05;;;;;;;3.90;3.13;;;;;;;;;;4938532;28;20034;-74
2022/05/13 09:55:40;;;;;;;6.00;3.70;;;;;;;;;;4940242;28;20070;-73
2022/05/13 09:58:10;;;;;;;5.03;3.20;;;;;;;;;;4938294;28;20067;-74
2022/05/13 10:00:38;;;;;;;7.30;3.58;;;;;;;;;;4938311;29;20055;-73
2022/05/13 10:03:09;;;;;;;4.75;3.50;;;;;;;;;;4938052;29;20049;-74
2022/05/13 10:05:34;;;;;;;43.17;11.73;;;;;;;;;;4938619;29;20047;-74
2022/05/13 10:08:00;;;;;;;7.80;3.72;;;;;;;;;;4932020;28;20085;-75
2022/05/13 10:16:04;;;;;;;3.85;3.25;;;;;;;;;;4926955;28;20426;-72
2022/05/13 10:18:31;;;;;;;3.72;3.30;;;;;;;;;;4927137;28;20031;-73
2022/05/13 10:21:02;;;;;;;2.90;2.70;;;;;;;;;;4925669;29;20110;-76
2022/05/13 10:23:48;;;;;;;7.88;3.40;;;;;;;;;;4925593;28;20455;-73
2022/05/13 10:26:19;;;;;;;4.45;3.13;;;;;;;;;;4927356;28;20084;-76
2022/05/13 10:28:47;;;;;;;5.57;4.25;;;;;;;;;;4926515;28;20049;-73
2022/05/13 10:31:18;;;;;;;3.85;3.05;;;;;;;;;;4929704;28;20034;-74
2022/05/13 10:33:53;;;;;;;4.93;3.38;;;;;;;;;;4928962;28;20093;-75
2022/05/13 10:36:18;;;;;;;5.30;3.47;;;;;;;;;;4929437;28;20514;-72
2022/05/13 10:38:48;;;;;;;4.80;3.17;;;;;;;;;;4937439;28;20027;-73
2022/05/13 10:41:22;;;;;;;4.65;2.88;;;;;;;;;;4936694;29;20258;-74
2022/05/13 10:44:00;;;;;;;5.78;3.15;;;;;;;;;;4937386;28;20390;-73
2022/05/13 10:46:27;;;;;;;6.25;3.20;;;;;;;;;;4938564;29;20430;-73
2022/05/13 10:48:54;;;;;;;4.72;2.85;;;;;;;;;;4937845;29;20024;-73
2022/05/13 10:51:19;;;;;;;4.88;3.20;;;;;;;;;;4937765;28;20415;-72
2022/05/13 10:53:45;;;;;;;3.50;3.00;;;;;;;;;;4935512;28;20035;-75
2022/05/13 10:56:10;;;;;;;3.40;3.10;;;;;;;;;;4927078;29;20110;-74
2022/05/13 10:58:39;;;;;;;3.83;3.00;;;;;;;;;;4926585;28;20114;-74
2022/05/13 11:01:16;;;;;;;4.75;2.80;;;;;;;;;;4929312;28;20035;-72
2022/05/13 11:03:53;;;;;;;4.18;2.92;;;;;;;;;;4929192;29;20035;-72
2022/05/13 11:06:46;;;;;;;5.57;3.10;;;;;;;;;;4931737;28;20101;-71
2022/05/13 11:09:20;;;;;;;3.65;3.20;;;;;;;;;;4940439;28;20353;-71
2022/05/13 11:11:45;;;;;;;4.10;3.05;;;;;;;;;;4939547;28;20435;-75
2022/05/13 11:14:17;;;;;;;3.50;2.58;;;;;;;;;;4939393;28;20057;-73
2022/05/13 11:16:51;;;;;;;4.68;3.05;;;;;;;;;;4940100;29;20027;-75
2022/05/13 11:19:19;;;;;;;4.10;2.85;;;;;;;;;;4941191;29;20362;-73
2022/05/13 11:21:56;;;;;;;3.65;3.00;;;;;;;;;;4940855;29;20406;-72
2022/05/13 11:27:30;;;;;;;3.20;2.90;;;;;;;;;;4941053;29;20085;-75
2022/05/13 11:30:05;;;;;;;4.50;2.90;;;;;;;;;;4939503;28;20023;-73
2022/05/13 11:32:36;;;;;;;5.72;3.70;;;;;;;;;;4940464;28;20648;-72
2022/05/13 11:35:07;;;;;;;4.28;2.95;;;;;;;;;;4940075;29;20568;-71
2022/05/13 11:37:36;;;;;;;3.38;3.08;;;;;;;;;;4941184;29;20092;-73
2022/05/13 11:40:01;;;;;;;;;;;;;;;;;;4941003;29;20046;-74
2022/05/13 11:42:26;;;;;;;4.30;3.00;;;;;;;;;;4939604;29;19915;-74
2022/05/13 11:45:09;;;;;;;5.27;2.83;;;;;;;;;;4940455;28;20048;-72
2022/05/13 11:47:40;;;;;;;6.53;3.10;;;;;;;;;;4940798;29;20729;-74
2022/05/13 11:50:06;;;;;;;3.15;2.90;;;;;;;;;;4941301;29;20120;-76
2022/05/13 11:52:34;;;;;;;3.95;2.90;;;;;;;;;;4939350;28;20070;-72
2022/05/13 11:55:12;;;;;;;6.95;3.40;;;;;;;;;;4939386;28;20040;-71
2022/05/13 11:57:42;;;;;;;4.28;2.83;;;;;;;;;;4939478;29;20047;-72
2022/05/13 12:00:23;;;;;;;4.45;2.58;;;;;;;;;;4939874;29;20474;-75
2022/05/13 12:02:49;;;;;;;4.57;3.17;;;;;;;;;;4939073;29;20101;-72
2022/05/13 12:05:17;;;;;;;4.13;3.25;;;;;;;;;;4939717;29;21533;-73
2022/05/13 12:07:51;;;;;;;4.93;2.92;;;;;;;;;;4939350;28;20039;-71
2022/05/13 12:10:17;;;;;;;3.25;2.67;;;;;;;;;;4938929;28;20031;-72
2022/05/13 12:13:01;;;;;;;3.03;2.83;;;;;;;;;;4940822;29;20035;-74
2022/05/13 12:15:46;;;;;;;4.50;2.88;;;;;;;;;;4940123;29;20070;-75
2022/05/13 12:18:28;;;;;;;4.13;3.10;;;;;;;;;;4939065;29;20494;-71
2022/05/13 12:20:53;;;;;;;3.67;3.20;;;;;;;;;;4940343;29;20035;-74
2022/05/13 12:23:29;;;;;;;2.97;2.70;;;;;;;;;;4939286;29;20053;-72
2022/05/13 12:25:57;;;;;;;3.58;3.10;;;;;;;;;;4938736;29;21131;-72
2022/05/13 12:28:24;;;;;;;3.15;2.80;;;;;;;;;;4939452;29;20031;-71
2022/05/13 12:30:51;;;;;;;4.25;2.92;;;;;;;;;;4937959;29;20031;-72
2022/05/13 12:33:19;;;;;;;6.07;3.22;;;;;;;;;;4938472;29;20071;-72
2022/05/13 12:38:28;;;;;;;3.28;2.78;;;;;;;;;;4938315;29;19921;-72
2022/05/13 12:41:09;;;;;;;3.78;2.85;;;;;;;;;;4940246;28;20027;-74
2022/05/13 12:43:44;;;;;;;4.32;3.00;;;;;;;;;;4938102;29;20019;-72
2022/05/13 12:46:13;;;;;;;5.38;3.40;;;;;;;;;;4940242;28;20031;-72
2022/05/13 12:48:53;;;;;;;5.85;2.88;;;;;;;;;;4938455;28;20034;-72
2022/05/13 12:51:20;;;;;;;6.90;3.13;;;;;;;;;;4939561;28;20038;-72
2022/05/13 12:53:47;;;;;;;6.28;3.30;;;;;;;;;;4941060;28;20034;-76
2022/05/13 12:56:12;;;;;;;5.07;3.30;;;;;;;;;;4939708;29;20715;-72
2022/05/13 12:58:39;;;;;;;5.38;3.20;;;;;;;;;;4939686;29;20042;-73
2022/05/13 13:01:05;;;;;;;3.45;3.10;;;;;;;;;;4938449;29;20079;-73
2022/05/13 13:03:36;;;;;;;4.60;3.15;;;;;;;;;;4938847;28;20058;-72
2022/05/13 13:06:07;;;;;;;3.42;2.90;;;;;;;;;;4936195;28;20035;-73
2022/05/13 13:08:36;;;;;;;3.58;3.17;;;;;;;;;;4937810;29;20096;-73
2022/05/13 13:11:07;;;;;;;3.88;2.90;;;;;;;;;;4929213;29;20035;-75
2022/05/13 13:13:41;;;;;;;5.18;2.90;;;;;;;;;;4924755;29;20108;-72
2022/05/13 13:16:13;;;;;;;4.88;3.28;;;;;;;;;;4927527;29;20134;-73
2022/05/13 13:18:39;;;;;;;5.75;3.00;;;;;;;;;;4932779;28;20042;-71
2022/05/13 13:21:07;;;;;;;4.38;2.58;;;;;;;;;;4937878;29;20019;-72
2022/05/13 13:23:32;;;;;;;;;;;;;;;;;;4938275;28;20027;-75
2022/05/13 13:25:58;;;;;;;4.38;3.00;;;;;;;;;;4938615;29;19925;-74
2022/05/13 13:28:25;;;;;;;5.65;3.38;;;;;;;;;;4937993;29;20043;-71
2022/05/13 13:30:56;;;;;;;3.80;3.13;;;;;;;;;;4928439;28;20483;-74
2022/05/13 13:33:23;;;;;;;5.13;3.42;;;;;;;;;;4927516;29;20034;-70
2022/05/13 13:35:49;;;;;;;3.90;2.78;;;;;;;;;;4936441;28;20093;-72
2022/05/13 13:38:15;;;;;;;4.32;3.08;;;;;;;;;;4926264;28;20058;-71
2022/05/13 13:40:46;;;;;;;5.57;3.05;;;;;;;;;;4937269;29;20027;-72
2022/05/13 13:43:21;;;;;;;4.25;3.50;;;;;;;;;;4939708;29;20067;-71
2022/05/13 13:45:49;;;;;;;4.90;3.10;;;;;;;;;;4936525;28;20447;-71
2022/05/13 13:48:27;;;;;;;3.05;2.80;;;;;;;;;;4939432;29;20038;-71
2022/05/13 13:50:53;;;;;;;4.63;3.40;;;;;;;;;;4933392;29;20497;-74
2022/05/13 13:53:30;;;;;;;3.08;2.78;;;;;;;;;;4925570;28;20043;-71
2022/05/13 13:55:57;;;;;;;4.78;3.05;;;;;;;;;;4926318;29;20043;-77
2022/05/13 13:58:23;;;;;;;4.38;3.30;;;;;;;;;;4926755;28;20442;-71
2022/05/13 14:00:49;;;;;;;3.20;2.90;;;;;;;;;;4927083;28;20052;-72
2022/05/13 14:03:15;;;;;;;3.80;2.90;;;;;;;;;;4931210;28;20732;-72
2022/05/13 14:05:43;;;;;;;4.30;3.30;;;;;;;;;;4931306;28;20140;-72
2022/05/13 14:08:12;;;;;;;5.55;3.35;;;;;;;;;;4939015;28;20254;-73
2022/05/13 14:10:40;;;;;;;3.55;3.03;;;;;;;;;;4936423;29;20088;-71
2022/05/13 14:13:07;;;;;;;4.90;4.03;;;;;;;;;;4937693;29;20110;-73
2022/05/13 14:15:34;;;;;;;4.95;4.40;;;;;;;;;;4937347;29;20848;-71
2022/05/13 14:18:00;;;;;;;4.20;3.80;;;;;;;;;;4938027;29;20038;-71
2022/05/13 14:20:33;;;;;;;4.75;3.08;;;;;;;;;;4933799;28;20023;-71
2022/05/13 14:22:58;;;;;;;5.55;3.20;;;;;;;;;;4925864;28;20446;-72
2022/05/13 14:25:31;;;;;;;4.53;2.83;;;;;;;;;;4925455;28;20056;-73
2022/05/13 14:27:57;;;;;;;4.55;2.78;;;;;;;;;;4930507;28;20308;-74
2022/05/13 14:30:29;;;;;;;6.68;3.15;;;;;;;;;;4926437;28;20027;-71
2022/05/13 14:32:55;;;;;;;4.95;2.97;;;;;;;;;;4926854;28;20035;-72
2022/05/13 14:35:27;;;;;;;3.42;3.08;;;;;;;;;;4936425;28;20043;-75
2022/05/13 14:37:54;;;;;;;3.38;2.70;;;;;;;;;;4929196;29;20038;-77
2022/05/13 14:40:25;;;;;;;4.57;3.00;;;;;;;;;;4923310;28;20078;-72
2022/05/13 14:42:51;;;;;;;5.43;3.28;;;;;;;;;;4925034;28;20023;-76
2022/05/13 14:45:30;;;;;;;4.72;2.85;;;;;;;;;;4929031;28;20035;-73
2022/05/13 14:47:55;;;;;;;;;;;;;;;;;;4926613;29;20035;-72
2022/05/13 14:50:32;;;;;;;4.93;3.13;;;;;;;;;;4924170;29;20346;-74
2022/05/13 14:52:58;;;;;;;5.20;2.75;;;;;;;;;;4922900;28;20039;-78
2022/05/13 14:55:25;;;;;;;6.32;3.00;;;;;;;;;;4925775;29;20359;-72
2022/05/13 14:57:51;;;;;;;3.10;2.72;;;;;;;;;;4937114;28;20058;-74
2022/05/13 15:00:20;;;;;;;6.60;2.70;;;;;;;;;;4937582;28;20217;-72
2022/05/13 15:02:55;;;;;;;5.32;2.78;;;;;;;;;;4935913;28;20043;-72
2022/05/13 15:05:28;;;;;;;3.90;2.38;;;;;;;;;;4928483;28;20043;-73
2022/05/13 15:07:56;;;;;;;3.47;2.63;;;;;;;;;;4928132;29;20109;-73
2022/05/13 15:10:24;;;;;;;6.30;2.72;;;;;;;;;;4936873;28;20160;-74
2022/05/13 15:12:50;;;;;;;3.85;2.50;;;;;;;;;;4935938;29;20036;-75
2022/05/13 15:15:18;;;;;;;2.55;2.15;;;;;;;;;;4937521;28;21122;-78
2022/05/13 15:17:50;;;;;;;4.60;2.90;;;;;;;;;;4934795;28;20035;-73
2022/05/13 15:20:16;;;;;;;2.58;2.22;;;;;;;;;;4931391;29;20110;-71
2022/05/13 15:22:42;;;;;;;3.80;2.00;;;;;;;;;;4924457;28;20050;-73
2022/05/13 15:25:09;;;;;;;4.60;2.53;;;;;;;;;;4926527;28;20035;-77